sensor_id;sensor_type;location;lat;lon;timestamp;pressure;altitude;pressure_sealevel;temperature;humidity
11124;BME280;5616;42.692;23.312;2022-10-31T00:01:24;95595.50;;;15.24;57.24
11124;BME280;5616;42.692;23.312;2022-10-31T00:03:51;95605.31;;;15.22;57.72
11124;BME280;5616;42.692;23.312;2022-10-31T00:06:19;95605.91;;;15.24;57.21
11124;BME280;5616;42.692;23.312;2022-10-31T00:08:46;95600.13;;;15.22;57.56
11124;BME280;5616;42.692;23.312;2022-10-31T00:11:14;95604.31;;;15.23;57.24
11124;BME280;5616;42.692;23.312;2022-10-31T00:13:40;95601.69;;;15.23;57.34
11124;BME280;5616;42.692;23.312;2022-10-31T00:16:14;95598.28;;;15.22;57.66
11124;BME280;5616;42.692;23.312;2022-10-31T00:18:42;95605.91;;;15.24;57.64
11124;BME280;5616;42.692;23.312;2022-10-31T00:21:09;95611.94;;;15.24;57.28
11124;BME280;5616;42.692;23.312;2022-10-31T00:23:36;95603.31;;;15.24;57.19
11124;BME280;5616;42.692;23.312;2022-10-31T00:26:03;95587.88;;;15.16;57.48
11124;BME280;5616;42.692;23.312;2022-10-31T00:28:30;95591.91;;;15.18;57.73
11124;BME280;5616;42.692;23.312;2022-10-31T00:31:00;95586.31;;;15.21;57.44
11124;BME280;5616;42.692;23.312;2022-10-31T00:33:29;95595.47;;;15.17;58.09
11124;BME280;5616;42.692;23.312;2022-10-31T00:35:56;95597.09;;;15.18;57.92
11124;BME280;5616;42.692;23.312;2022-10-31T00:38:23;95596.72;;;15.21;58.03
11124;BME280;5616;42.692;23.312;2022-10-31T00:40:50;95596.50;;;15.23;57.96
11124;BME280;5616;42.692;23.312;2022-10-31T00:43:16;95590.09;;;15.25;57.81
11124;BME280;5616;42.692;23.312;2022-10-31T00:45:43;95586.69;;;15.25;58.24
11124;BME280;5616;42.692;23.312;2022-10-31T00:48:10;95586.69;;;15.25;58.09
11124;BME280;5616;42.692;23.312;2022-10-31T00:50:39;95588.31;;;15.26;58.35
11124;BME280;5616;42.692;23.312;2022-10-31T00:53:06;95590.09;;;15.25;58.95
11124;BME280;5616;42.692;23.312;2022-10-31T00:55:33;95591.50;;;15.28;58.45
11124;BME280;5616;42.692;23.312;2022-10-31T00:58:00;95594.75;;;15.30;58.30
11124;BME280;5616;42.692;23.312;2022-10-31T01:00:27;95597.94;;;15.32;58.42
11124;BME280;5616;42.692;23.312;2022-10-31T01:02:55;95595.34;;;15.32;59.13
11124;BME280;5616;42.692;23.312;2022-10-31T01:05:22;95595.50;;;15.30;58.64
11124;BME280;5616;42.692;23.312;2022-10-31T01:07:50;95598.31;;;15.29;58.46
11124;BME280;5616;42.692;23.312;2022-10-31T01:10:17;95593.72;;;15.31;58.22
11124;BME280;5616;42.692;23.312;2022-10-31T01:12:45;95594.09;;;15.28;58.92
11124;BME280;5616;42.692;23.312;2022-10-31T01:15:14;95599.09;;;15.23;59.60
11124;BME280;5616;42.692;23.312;2022-10-31T01:17:42;95596.88;;;15.20;58.96
11124;BME280;5616;42.692;23.312;2022-10-31T01:20:12;95605.72;;;15.19;59.19
11124;BME280;5616;42.692;23.312;2022-10-31T01:22:39;95603.50;;;15.16;59.73
11124;BME280;5616;42.692;23.312;2022-10-31T01:25:09;95610.69;;;15.14;59.97
11124;BME280;5616;42.692;23.312;2022-10-31T01:27:36;95602.91;;;15.14;59.64
11124;BME280;5616;42.692;23.312;2022-10-31T01:30:06;95599.50;;;15.13;59.24
11124;BME280;5616;42.692;23.312;2022-10-31T01:32:33;95608.31;;;15.19;59.22
11124;BME280;5616;42.692;23.312;2022-10-31T01:34:59;95602.72;;;15.22;59.33
11124;BME280;5616;42.692;23.312;2022-10-31T01:37:26;95607.50;;;15.25;58.94
11124;BME280;5616;42.692;23.312;2022-10-31T01:39:53;95609.53;;;15.29;59.26
11124;BME280;5616;42.692;23.312;2022-10-31T01:42:23;95607.31;;;15.33;59.65
11124;BME280;5616;42.692;23.312;2022-10-31T01:44:55;95599.13;;;15.36;59.70
11124;BME280;5616;42.692;23.312;2022-10-31T01:47:37;95615.97;;;15.40;59.62
11124;BME280;5616;42.692;23.312;2022-10-31T01:50:12;95607.78;;;15.43;59.16
11124;BME280;5616;42.692;23.312;2022-10-31T01:52:41;95610.97;;;15.45;59.33
11124;BME280;5616;42.692;23.312;2022-10-31T01:55:13;95608.00;;;15.48;59.71
11124;BME280;5616;42.692;23.312;2022-10-31T01:57:45;95609.41;;;15.51;59.45
11124;BME280;5616;42.692;23.312;2022-10-31T02:00:16;95610.41;;;15.50;59.18
11124;BME280;5616;42.692;23.312;2022-10-31T02:02:45;95614.63;;;15.57;59.58
11124;BME280;5616;42.692;23.312;2022-10-31T02:05:17;95603.81;;;15.60;59.65
11124;BME280;5616;42.692;23.312;2022-10-31T02:07:50;95596.41;;;15.64;59.71
11124;BME280;5616;42.692;23.312;2022-10-31T02:10:19;95599.63;;;15.66;59.65
11124;BME280;5616;42.692;23.312;2022-10-31T02:12:48;95590.19;;;15.65;60.25
11124;BME280;5616;42.692;23.312;2022-10-31T02:15:16;95594.00;;;15.62;59.77
11124;BME280;5616;42.692;23.312;2022-10-31T02:17:43;95594.41;;;15.66;59.24
11124;BME280;5616;42.692;23.312;2022-10-31T02:20:15;95594.63;;;15.64;59.66
11124;BME280;5616;42.692;23.312;2022-10-31T02:22:59;95603.41;;;15.63;59.94
11124;BME280;5616;42.692;23.312;2022-10-31T02:25:51;95606.81;;;15.64;60.31
11124;BME280;5616;42.692;23.312;2022-10-31T02:28:40;95621.63;;;15.63;60.63
11124;BME280;5616;42.692;23.312;2022-10-31T02:31:27;95619.81;;;15.57;60.68
11124;BME280;5616;42.692;23.312;2022-10-31T02:34:03;95628.81;;;15.55;60.75
11124;BME280;5616;42.692;23.312;2022-10-31T02:36:36;95623.25;;;15.51;60.06
11124;BME280;5616;42.692;23.312;2022-10-31T02:39:11;95625.22;;;15.49;60.34
11124;BME280;5616;42.692;23.312;2022-10-31T02:41:46;95624.63;;;15.47;60.33
11124;BME280;5616;42.692;23.312;2022-10-31T02:44:22;95625.78;;;15.45;60.24
11124;BME280;5616;42.692;23.312;2022-10-31T02:46:57;95638.78;;;15.38;60.48
11124;BME280;5616;42.692;23.312;2022-10-31T02:49:28;95631.56;;;15.33;60.85
11124;BME280;5616;42.692;23.312;2022-10-31T02:51:57;95631.94;;;15.24;61.43
11124;BME280;5616;42.692;23.312;2022-10-31T02:54:25;95647.34;;;15.19;62.19
11124;BME280;5616;42.692;23.312;2022-10-31T02:56:56;95640.91;;;15.15;62.03
11124;BME280;5616;42.692;23.312;2022-10-31T02:59:25;95645.66;;;15.05;62.12
11124;BME280;5616;42.692;23.312;2022-10-31T03:02:08;95641.66;;;14.96;62.49
11124;BME280;5616;42.692;23.312;2022-10-31T03:04:57;95643.66;;;15.00;62.45
11124;BME280;5616;42.692;23.312;2022-10-31T03:07:31;95649.03;;;14.99;62.34
11124;BME280;5616;42.692;23.312;2022-10-31T03:10:04;95655.84;;;15.00;62.76
11124;BME280;5616;42.692;23.312;2022-10-31T03:12:39;95648.03;;;14.93;63.16
11124;BME280;5616;42.692;23.312;2022-10-31T03:15:14;95642.38;;;14.83;63.60
11124;BME280;5616;42.692;23.312;2022-10-31T03:17:52;95638.50;;;14.73;63.84
11124;BME280;5616;42.692;23.312;2022-10-31T03:20:24;95645.09;;;14.68;63.89
11124;BME280;5616;42.692;23.312;2022-10-31T03:22:55;95647.50;;;14.70;64.22
11124;BME280;5616;42.692;23.312;2022-10-31T03:25:23;95653.09;;;14.67;64.76
11124;BME280;5616;42.692;23.312;2022-10-31T03:27:53;95646.91;;;14.68;64.41
11124;BME280;5616;42.692;23.312;2022-10-31T03:30:21;95652.06;;;14.61;64.51
11124;BME280;5616;42.692;23.312;2022-10-31T03:32:58;95656.41;;;14.54;64.98
11124;BME280;5616;42.692;23.312;2022-10-31T03:35:30;95653.34;;;14.72;80.55
11124;BME280;5616;42.692;23.312;2022-10-31T03:37:59;95652.97;;;14.82;72.41
11124;BME280;5616;42.692;23.312;2022-10-31T03:40:27;95656.31;;;14.69;65.35
11124;BME280;5616;42.692;23.312;2022-10-31T03:42:58;95662.47;;;14.61;64.79
11124;BME280;5616;42.692;23.312;2022-10-31T03:45:28;95667.38;;;14.50;64.86
11124;BME280;5616;42.692;23.312;2022-10-31T03:47:58;95669.50;;;14.40;65.63
11124;BME280;5616;42.692;23.312;2022-10-31T03:50:28;95672.16;;;14.25;65.71
11124;BME280;5616;42.692;23.312;2022-10-31T03:53:05;95674.13;;;14.17;66.41
11124;BME280;5616;42.692;23.312;2022-10-31T03:55:39;95673.69;;;14.13;66.70
11124;BME280;5616;42.692;23.312;2022-10-31T03:58:09;95677.78;;;14.01;67.23
11124;BME280;5616;42.692;23.312;2022-10-31T04:00:38;95678.31;;;13.96;67.23
11124;BME280;5616;42.692;23.312;2022-10-31T04:03:10;95681.03;;;13.88;67.43
11124;BME280;5616;42.692;23.312;2022-10-31T04:05:44;95678.66;;;13.87;67.91
11124;BME280;5616;42.692;23.312;2022-10-31T04:08:16;95681.81;;;13.82;68.11
11124;BME280;5616;42.692;23.312;2022-10-31T04:10:47;95685.81;;;13.85;68.57
11124;BME280;5616;42.692;23.312;2022-10-31T04:13:20;95681.44;;;13.85;68.63
11124;BME280;5616;42.692;23.312;2022-10-31T04:15:58;95686.19;;;13.82;68.84
11124;BME280;5616;42.692;23.312;2022-10-31T04:18:26;95686.56;;;13.79;68.86
11124;BME280;5616;42.692;23.312;2022-10-31T04:21:00;95684.41;;;13.82;69.33
11124;BME280;5616;42.692;23.312;2022-10-31T04:23:27;95672.59;;;13.80;68.93
11124;BME280;5616;42.692;23.312;2022-10-31T04:25:55;95691.88;;;13.92;69.29
11124;BME280;5616;42.692;23.312;2022-10-31T04:28:22;95678.44;;;13.88;68.64
11124;BME280;5616;42.692;23.312;2022-10-31T04:30:49;95691.31;;;13.96;69.03
11124;BME280;5616;42.692;23.312;2022-10-31T04:33:16;95681.59;;;14.05;68.82
11124;BME280;5616;42.692;23.312;2022-10-31T04:35:46;95689.47;;;13.90;68.93
11124;BME280;5616;42.692;23.312;2022-10-31T04:38:13;95687.13;;;13.95;69.09
11124;BME280;5616;42.692;23.312;2022-10-31T04:40:40;95683.34;;;13.98;69.21
11124;BME280;5616;42.692;23.312;2022-10-31T04:43:26;95683.16;;;13.99;69.02
11124;BME280;5616;42.692;23.312;2022-10-31T04:45:52;95688.66;;;13.90;69.84
11124;BME280;5616;42.692;23.312;2022-10-31T04:48:19;95695.44;;;13.91;69.43
11124;BME280;5616;42.692;23.312;2022-10-31T04:50:48;95690.91;;;13.93;69.62
11124;BME280;5616;42.692;23.312;2022-10-31T04:53:14;95695.84;;;13.88;69.73
11124;BME280;5616;42.692;23.312;2022-10-31T04:56:01;95705.84;;;13.91;69.62
11124;BME280;5616;42.692;23.312;2022-10-31T04:58:37;95715.03;;;13.93;70.18
11124;BME280;5616;42.692;23.312;2022-10-31T05:01:07;95700.47;;;13.92;69.22
11124;BME280;5616;42.692;23.312;2022-10-31T05:03:34;95703.47;;;13.96;69.40
11124;BME280;5616;42.692;23.312;2022-10-31T05:06:03;95710.13;;;13.98;69.32
11124;BME280;5616;42.692;23.312;2022-10-31T05:08:30;95707.53;;;13.98;69.07
11124;BME280;5616;42.692;23.312;2022-10-31T05:10:59;95715.00;;;13.87;69.46
11124;BME280;5616;42.692;23.312;2022-10-31T05:13:26;95711.78;;;13.85;69.80
11124;BME280;5616;42.692;23.312;2022-10-31T05:16:16;95718.06;;;13.76;69.91
11124;BME280;5616;42.692;23.312;2022-10-31T05:19:01;95719.44;;;13.72;70.11
11124;BME280;5616;42.692;23.312;2022-10-31T05:21:48;95720.22;;;13.72;70.70
11124;BME280;5616;42.692;23.312;2022-10-31T05:24:15;95729.06;;;13.78;70.68
11124;BME280;5616;42.692;23.312;2022-10-31T05:26:46;95728.09;;;13.79;70.40
11124;BME280;5616;42.692;23.312;2022-10-31T05:29:13;95726.91;;;13.81;70.48
11124;BME280;5616;42.692;23.312;2022-10-31T05:31:40;95741.69;;;13.81;70.82
11124;BME280;5616;42.692;23.312;2022-10-31T05:34:14;95738.09;;;13.82;70.65
11124;BME280;5616;42.692;23.312;2022-10-31T05:37:00;95738.09;;;13.82;70.24
11124;BME280;5616;42.692;23.312;2022-10-31T05:39:27;95736.50;;;13.81;70.73
11124;BME280;5616;42.692;23.312;2022-10-31T05:41:59;95746.88;;;13.81;70.47
11124;BME280;5616;42.692;23.312;2022-10-31T05:44:26;95743.31;;;13.82;70.28
11124;BME280;5616;42.692;23.312;2022-10-31T05:47:08;95750.13;;;13.68;71.21
11124;BME280;5616;42.692;23.312;2022-10-31T05:49:53;95743.22;;;13.75;70.19
11124;BME280;5616;42.692;23.312;2022-10-31T05:52:36;95741.25;;;13.77;71.31
11124;BME280;5616;42.692;23.312;2022-10-31T05:55:13;95746.44;;;13.77;70.94
11124;BME280;5616;42.692;23.312;2022-10-31T05:57:54;95748.50;;;13.82;71.07
11124;BME280;5616;42.692;23.312;2022-10-31T06:00:22;95744.53;;;13.86;70.45
11124;BME280;5616;42.692;23.312;2022-10-31T06:02:49;95747.75;;;13.88;69.73
11124;BME280;5616;42.692;23.312;2022-10-31T06:05:34;95752.75;;;13.89;69.39
11124;BME280;5616;42.692;23.312;2022-10-31T06:08:03;95764.94;;;13.89;69.85
11124;BME280;5616;42.692;23.312;2022-10-31T06:10:29;95764.75;;;13.90;69.35
11124;BME280;5616;42.692;23.312;2022-10-31T06:12:56;95767.28;;;13.84;69.72
11124;BME280;5616;42.692;23.312;2022-10-31T06:15:43;95776.69;;;13.85;68.85
11124;BME280;5616;42.692;23.312;2022-10-31T06:18:11;95770.72;;;13.91;69.43
11124;BME280;5616;42.692;23.312;2022-10-31T06:20:45;95781.13;;;13.91;68.80
11124;BME280;5616;42.692;23.312;2022-10-31T06:23:13;95776.19;;;13.96;68.55
11124;BME280;5616;42.692;23.312;2022-10-31T06:25:43;95792.56;;;13.96;68.35
11124;BME280;5616;42.692;23.312;2022-10-31T06:28:11;95785.66;;;14.03;68.03
11124;BME280;5616;42.692;23.312;2022-10-31T06:30:54;95788.94;;;14.12;68.15
11124;BME280;5616;42.692;23.312;2022-10-31T06:33:22;95793.16;;;14.13;67.70
11124;BME280;5616;42.692;23.312;2022-10-31T06:35:57;95791.16;;;14.15;68.24
11124;BME280;5616;42.692;23.312;2022-10-31T06:38:26;95791.47;;;14.27;68.40
11124;BME280;5616;42.692;23.312;2022-10-31T06:40:54;95793.38;;;14.33;67.97
11124;BME280;5616;42.692;23.312;2022-10-31T06:43:24;95796.22;;;14.38;68.29
11124;BME280;5616;42.692;23.312;2022-10-31T06:46:08;95797.31;;;14.50;68.07
11124;BME280;5616;42.692;23.312;2022-10-31T06:48:46;95792.22;;;14.63;67.63
11124;BME280;5616;42.692;23.312;2022-10-31T06:51:18;95800.22;;;14.61;67.82
11124;BME280;5616;42.692;23.312;2022-10-31T06:53:49;95792.47;;;14.68;68.16
11124;BME280;5616;42.692;23.312;2022-10-31T06:56:17;95786.66;;;14.66;67.88
11124;BME280;5616;42.692;23.312;2022-10-31T06:58:47;95800.13;;;14.76;67.70
11124;BME280;5616;42.692;23.312;2022-10-31T07:01:17;95799.91;;;14.78;67.78
11124;BME280;5616;42.692;23.312;2022-10-31T07:03:43;95799.97;;;14.84;67.04
11124;BME280;5616;42.692;23.312;2022-10-31T07:06:10;95794.41;;;14.87;67.64
11124;BME280;5616;42.692;23.312;2022-10-31T07:08:38;95795.25;;;14.94;67.80
11124;BME280;5616;42.692;23.312;2022-10-31T07:11:07;95802.47;;;14.99;68.36
11124;BME280;5616;42.692;23.312;2022-10-31T07:13:34;95799.50;;;15.02;67.91
11124;BME280;5616;42.692;23.312;2022-10-31T07:16:07;95790.72;;;15.03;66.50
11124;BME280;5616;42.692;23.312;2022-10-31T07:18:37;95793.31;;;15.03;66.98
11124;BME280;5616;42.692;23.312;2022-10-31T07:21:05;95795.34;;;15.07;66.77
11124;BME280;5616;42.692;23.312;2022-10-31T07:23:31;95787.72;;;15.06;66.16
11124;BME280;5616;42.692;23.312;2022-10-31T07:26:18;95777.78;;;15.16;66.30
11124;BME280;5616;42.692;23.312;2022-10-31T07:28:47;95775.63;;;15.19;67.24
11124;BME280;5616;42.692;23.312;2022-10-31T07:31:16;95774.28;;;15.30;67.16
11124;BME280;5616;42.692;23.312;2022-10-31T07:33:43;95780.91;;;15.39;67.71
11124;BME280;5616;42.692;23.312;2022-10-31T07:36:22;95784.53;;;15.45;67.20
11124;BME280;5616;42.692;23.312;2022-10-31T07:38:51;95782.59;;;15.53;67.26
11124;BME280;5616;42.692;23.312;2022-10-31T07:41:19;95779.84;;;15.61;65.78
11124;BME280;5616;42.692;23.312;2022-10-31T07:43:47;95773.66;;;15.69;65.02
11124;BME280;5616;42.692;23.312;2022-10-31T07:46:17;95771.06;;;15.75;64.61
11124;BME280;5616;42.692;23.312;2022-10-31T07:49:04;95771.91;;;15.82;64.62
11124;BME280;5616;42.692;23.312;2022-10-31T07:51:49;95773.53;;;15.97;63.83
11124;BME280;5616;42.692;23.312;2022-10-31T07:54:19;95771.16;;;16.08;63.39
11124;BME280;5616;42.692;23.312;2022-10-31T07:56:48;95769.19;;;16.17;64.14
11124;BME280;5616;42.692;23.312;2022-10-31T07:59:15;95768.56;;;16.28;64.03
11124;BME280;5616;42.692;23.312;2022-10-31T08:01:42;95766.59;;;16.43;63.28
11124;BME280;5616;42.692;23.312;2022-10-31T08:04:47;95776.66;;;16.59;62.27
11124;BME280;5616;42.692;23.312;2022-10-31T08:07:36;95780.06;;;16.73;62.64
11124;BME280;5616;42.692;23.312;2022-10-31T08:10:06;95778.66;;;16.83;61.28
11124;BME280;5616;42.692;23.312;2022-10-31T08:12:35;95778.22;;;16.99;60.81
11124;BME280;5616;42.692;23.312;2022-10-31T08:15:07;95780.41;;;17.16;60.17
11124;BME280;5616;42.692;23.312;2022-10-31T08:17:34;95776.00;;;17.09;60.47
11124;BME280;5616;42.692;23.312;2022-10-31T08:20:02;95783.81;;;17.23;61.04
11124;BME280;5616;42.692;23.312;2022-10-31T08:22:35;95778.53;;;17.36;59.45
11124;BME280;5616;42.692;23.312;2022-10-31T08:25:03;95784.34;;;17.51;59.00
11124;BME280;5616;42.692;23.312;2022-10-31T08:27:30;95779.50;;;17.61;60.16
11124;BME280;5616;42.692;23.312;2022-10-31T08:30:00;95782.06;;;17.74;59.49
11124;BME280;5616;42.692;23.312;2022-10-31T08:32:27;95780.44;;;17.80;58.22
11124;BME280;5616;42.692;23.312;2022-10-31T08:34:57;95775.97;;;17.93;58.85
11124;BME280;5616;42.692;23.312;2022-10-31T08:37:43;95772.88;;;18.03;57.55
11124;BME280;5616;42.692;23.312;2022-10-31T08:40:10;95772.47;;;18.06;57.43
11124;BME280;5616;42.692;23.312;2022-10-31T08:42:39;95767.63;;;18.09;57.88
11124;BME280;5616;42.692;23.312;2022-10-31T08:45:08;95772.97;;;18.21;57.32
11124;BME280;5616;42.692;23.312;2022-10-31T08:47:35;95767.88;;;18.32;57.62
11124;BME280;5616;42.692;23.312;2022-10-31T08:50:04;95771.25;;;18.40;57.25
11124;BME280;5616;42.692;23.312;2022-10-31T08:52:31;95766.75;;;18.47;58.02
11124;BME280;5616;42.692;23.312;2022-10-31T08:55:00;95763.56;;;18.51;56.87
11124;BME280;5616;42.692;23.312;2022-10-31T08:57:46;95762.09;;;18.55;57.94
11124;BME280;5616;42.692;23.312;2022-10-31T09:00:14;95760.19;;;18.69;57.70
11124;BME280;5616;42.692;23.312;2022-10-31T09:02:56;95769.38;;;18.78;56.71
11124;BME280;5616;42.692;23.312;2022-10-31T09:05:24;95773.03;;;18.95;56.26
11124;BME280;5616;42.692;23.312;2022-10-31T09:07:51;95769.88;;;19.11;56.09
11124;BME280;5616;42.692;23.312;2022-10-31T09:10:18;95766.09;;;19.25;55.49
11124;BME280;5616;42.692;23.312;2022-10-31T09:12:45;95760.13;;;19.36;55.52
11124;BME280;5616;42.692;23.312;2022-10-31T09:15:33;95759.66;;;19.46;55.19
11124;BME280;5616;42.692;23.312;2022-10-31T09:18:14;95759.84;;;19.63;54.27
11124;BME280;5616;42.692;23.312;2022-10-31T09:20:58;95758.44;;;19.78;53.47
11124;BME280;5616;42.692;23.312;2022-10-31T09:23:27;95754.28;;;19.89;53.25
11124;BME280;5616;42.692;23.312;2022-10-31T09:25:54;95748.06;;;20.01;53.36
11124;BME280;5616;42.692;23.312;2022-10-31T09:28:39;95748.34;;;20.11;53.90
11124;BME280;5616;42.692;23.312;2022-10-31T09:31:10;95750.72;;;20.13;53.76
11124;BME280;5616;42.692;23.312;2022-10-31T09:34:00;95748.59;;;20.22;52.60
11124;BME280;5616;42.692;23.312;2022-10-31T09:36:36;95746.03;;;20.33;52.47
11124;BME280;5616;42.692;23.312;2022-10-31T09:39:04;95755.16;;;20.42;53.58
11124;BME280;5616;42.692;23.312;2022-10-31T09:41:55;95754.47;;;20.47;51.87
11124;BME280;5616;42.692;23.312;2022-10-31T09:44:33;95744.59;;;20.60;51.41
11124;BME280;5616;42.692;23.312;2022-10-31T09:47:12;95744.03;;;20.70;51.12
11124;BME280;5616;42.692;23.312;2022-10-31T09:50:06;95736.84;;;20.77;50.91
11124;BME280;5616;42.692;23.312;2022-10-31T09:52:39;95737.97;;;20.81;51.24
11124;BME280;5616;42.692;23.312;2022-10-31T09:55:15;95737.06;;;20.87;51.00
11124;BME280;5616;42.692;23.312;2022-10-31T09:57:44;95739.00;;;20.92;50.46
11124;BME280;5616;42.692;23.312;2022-10-31T10:00:16;95739.72;;;20.99;50.00
11124;BME280;5616;42.692;23.312;2022-10-31T10:02:48;95742.19;;;21.05;50.17
11124;BME280;5616;42.692;23.312;2022-10-31T10:05:21;95736.06;;;21.11;49.93
11124;BME280;5616;42.692;23.312;2022-10-31T10:07:58;95731.38;;;21.13;50.07
11124;BME280;5616;42.692;23.312;2022-10-31T10:11:07;95720.53;;;21.21;49.53
11124;BME280;5616;42.692;23.312;2022-10-31T10:14:06;95718.09;;;21.31;49.94
11124;BME280;5616;42.692;23.312;2022-10-31T10:16:49;95712.63;;;21.33;48.90
11124;BME280;5616;42.692;23.312;2022-10-31T10:19:52;95714.09;;;21.41;48.60
11124;BME280;5616;42.692;23.312;2022-10-31T10:22:27;95709.28;;;21.49;47.71
11124;BME280;5616;42.692;23.312;2022-10-31T10:25:14;95704.78;;;21.61;47.19
11124;BME280;5616;42.692;23.312;2022-10-31T10:27:48;95698.69;;;21.72;48.02
11124;BME280;5616;42.692;23.312;2022-10-31T10:30:17;95700.25;;;21.73;45.96
11124;BME280;5616;42.692;23.312;2022-10-31T10:32:48;95698.53;;;21.79;46.74
11124;BME280;5616;42.692;23.312;2022-10-31T10:35:21;95687.53;;;21.93;45.64
11124;BME280;5616;42.692;23.312;2022-10-31T10:37:50;95685.00;;;22.15;45.54
11124;BME280;5616;42.692;23.312;2022-10-31T10:40:21;95677.03;;;22.27;45.71
11124;BME280;5616;42.692;23.312;2022-10-31T10:42:56;95674.56;;;22.37;45.49
11124;BME280;5616;42.692;23.312;2022-10-31T10:45:46;95669.47;;;22.47;46.01
11124;BME280;5616;42.692;23.312;2022-10-31T10:48:40;95671.88;;;22.48;45.25
11124;BME280;5616;42.692;23.312;2022-10-31T10:51:20;95674.50;;;22.48;45.08
11124;BME280;5616;42.692;23.312;2022-10-31T10:54:01;95666.91;;;22.52;44.69
11124;BME280;5616;42.692;23.312;2022-10-31T10:56:39;95658.63;;;22.43;44.04
11124;BME280;5616;42.692;23.312;2022-10-31T10:59:12;95670.34;;;22.52;44.11
11124;BME280;5616;42.692;23.312;2022-10-31T11:01:40;95672.56;;;22.61;43.87
11124;BME280;5616;42.692;23.312;2022-10-31T11:04:30;95663.09;;;22.60;43.55
11124;BME280;5616;42.692;23.312;2022-10-31T11:07:01;95655.31;;;22.65;44.88
11124;BME280;5616;42.692;23.312;2022-10-31T11:09:28;95658.16;;;22.63;44.71
11124;BME280;5616;42.692;23.312;2022-10-31T11:11:55;95661.81;;;22.62;44.29
11124;BME280;5616;42.692;23.312;2022-10-31T11:14:23;95648.88;;;22.61;44.04
11124;BME280;5616;42.692;23.312;2022-10-31T11:16:54;95644.78;;;22.65;44.17
11124;BME280;5616;42.692;23.312;2022-10-31T11:19:23;95658.81;;;22.70;43.87
11124;BME280;5616;42.692;23.312;2022-10-31T11:21:52;95639.31;;;22.71;43.11
11124;BME280;5616;42.692;23.312;2022-10-31T11:24:22;95644.66;;;22.76;44.34
11124;BME280;5616;42.692;23.312;2022-10-31T11:26:51;95651.28;;;22.79;42.80
11124;BME280;5616;42.692;23.312;2022-10-31T11:29:21;95640.19;;;22.77;43.17
11124;BME280;5616;42.692;23.312;2022-10-31T11:31:52;95639.97;;;22.78;44.25
11124;BME280;5616;42.692;23.312;2022-10-31T11:34:27;95633.09;;;22.77;43.37
11124;BME280;5616;42.692;23.312;2022-10-31T11:36:58;95631.00;;;22.79;43.44
11124;BME280;5616;42.692;23.312;2022-10-31T11:39:29;95627.56;;;22.79;43.53
11124;BME280;5616;42.692;23.312;2022-10-31T11:41:59;95628.91;;;22.81;43.56
11124;BME280;5616;42.692;23.312;2022-10-31T11:44:29;95632.69;;;22.85;43.86
11124;BME280;5616;42.692;23.312;2022-10-31T11:46:59;95623.72;;;22.86;42.79
11124;BME280;5616;42.692;23.312;2022-10-31T11:49:30;95623.50;;;22.88;43.17
11124;BME280;5616;42.692;23.312;2022-10-31T11:52:00;95617.34;;;22.82;43.40
11124;BME280;5616;42.692;23.312;2022-10-31T11:54:41;95607.31;;;22.79;42.65
11124;BME280;5616;42.692;23.312;2022-10-31T11:57:22;95610.00;;;22.84;42.58
11124;BME280;5616;42.692;23.312;2022-10-31T11:59:51;95619.03;;;22.88;42.45
11124;BME280;5616;42.692;23.312;2022-10-31T12:02:19;95611.41;;;22.92;41.33
11124;BME280;5616;42.692;23.312;2022-10-31T12:04:50;95613.41;;;23.01;41.19
11124;BME280;5616;42.692;23.312;2022-10-31T12:07:20;95607.13;;;23.07;41.77
11124;BME280;5616;42.692;23.312;2022-10-31T12:09:50;95601.38;;;23.10;41.24
11124;BME280;5616;42.692;23.312;2022-10-31T12:12:34;95596.41;;;23.14;41.15
11124;BME280;5616;42.692;23.312;2022-10-31T12:15:26;95602.53;;;23.20;41.21
11124;BME280;5616;42.692;23.312;2022-10-31T12:20:50;95602.00;;;23.18;41.19
11124;BME280;5616;42.692;23.312;2022-10-31T12:23:28;95594.09;;;23.18;40.83
11124;BME280;5616;42.692;23.312;2022-10-31T12:26:07;95603.34;;;23.20;40.85
11124;BME280;5616;42.692;23.312;2022-10-31T12:28:54;95602.06;;;23.23;41.04
11124;BME280;5616;42.692;23.312;2022-10-31T12:31:33;95599.66;;;23.21;41.95
11124;BME280;5616;42.692;23.312;2022-10-31T12:34:28;95599.38;;;23.18;40.82
11124;BME280;5616;42.692;23.312;2022-10-31T12:37:05;95602.59;;;23.25;40.97
11124;BME280;5616;42.692;23.312;2022-10-31T12:39:44;95592.16;;;23.35;41.82
11124;BME280;5616;42.692;23.312;2022-10-31T12:42:21;95594.34;;;23.38;41.15
11124;BME280;5616;42.692;23.312;2022-10-31T12:45:06;95594.38;;;23.43;41.36
11124;BME280;5616;42.692;23.312;2022-10-31T12:47:49;95597.03;;;23.43;41.99
11124;BME280;5616;42.692;23.312;2022-10-31T12:50:26;95596.97;;;23.38;41.82
11124;BME280;5616;42.692;23.312;2022-10-31T12:53:01;95593.75;;;23.36;41.25
11124;BME280;5616;42.692;23.312;2022-10-31T12:55:41;95601.44;;;23.37;41.82
11124;BME280;5616;42.692;23.312;2022-10-31T12:58:19;95599.00;;;23.31;41.18
11124;BME280;5616;42.692;23.312;2022-10-31T13:00:58;95591.78;;;23.26;42.72
11124;BME280;5616;42.692;23.312;2022-10-31T13:03:31;95598.34;;;23.24;42.75
11124;BME280;5616;42.692;23.312;2022-10-31T13:06:04;95595.66;;;23.19;40.91
11124;BME280;5616;42.692;23.312;2022-10-31T13:08:36;95596.53;;;23.24;41.04
11124;BME280;5616;42.692;23.312;2022-10-31T13:11:10;95598.84;;;23.21;42.18
11124;BME280;5616;42.692;23.312;2022-10-31T13:13:41;95591.69;;;23.16;41.80
11124;BME280;5616;42.692;23.312;2022-10-31T13:16:15;95595.63;;;23.13;42.48
11124;BME280;5616;42.692;23.312;2022-10-31T13:18:45;95594.28;;;23.11;42.70
11124;BME280;5616;42.692;23.312;2022-10-31T13:21:18;95591.03;;;23.04;41.72
11124;BME280;5616;42.692;23.312;2022-10-31T13:23:49;95593.91;;;23.02;42.28
11124;BME280;5616;42.692;23.312;2022-10-31T13:26:22;95590.16;;;22.98;43.12
11124;BME280;5616;42.692;23.312;2022-10-31T13:28:56;95581.16;;;22.94;42.47
11124;BME280;5616;42.692;23.312;2022-10-31T13:31:26;95588.03;;;22.95;42.41
11124;BME280;5616;42.692;23.312;2022-10-31T13:33:54;95589.13;;;22.99;43.09